LYTVLYPG

Guest
Details From LYTV - Tivat
To LYPG - Podgorica
Flight Number -
Tags generated
Created
Modified
Stats Distance 25 nm / 46 km
Max Altitude 300 ft / 91 m
Waypoints 3
Social Downloads 2
Likes 0
Share VATSIM

Download

Looking for another format? Having issues loading an existing format? Contact us
Advertisement - Login to hide

Notes

Basic altitude profile: - Ascent Rate: 2500ft/min - Ascent Speed: 250kts - Cruise Altitude: 35000ft - Cruise Speed: 420kts - Descent Rate: 1500ft/min - Descent Speed: 250kts Options: - Use NATs: yes - Use PACOTS: yes - Use low airways: yes - Use high airways: yes

Route

LYTV POD LYPG

ID Type Via Altitude Latitude Longitude Leg Dist Tot Dist Heading (true) Name
O LYTV APT - 0 ft / 0 m 42.40466˚ 18.72329˚ - 0 nm - Tivat
POD VOR - 300 ft / 91 m 42.38619˚ 19.25461˚ 23 nm 23 nm 93° / 93° PODGORICA VOR-DME
O LYPG APT - 0 ft / 0 m 42.36795˚ 19.27572˚ 1 nm 25 nm 139° / 139° Podgorica

Altitude Profile

Advertisement - Login to hide

LYTV

Details ICAO LYTV (TIV)
Name Tivat
Region Serbia and Montenegro
Timezone Europe/Podgorica (UTC+1.0)
Stats Elevation 20 ft / 6 m (AMSL)
Location 42.404657° 18.723295°
Runways 1
Magnetic Variation 4.163° E

METAR

LYTV 141700Z VRB02KT 9999 -RA BKN030 OVC083 10/10 Q1015 NOSIG

Decode

TAF

TAF TAF LYTV 141100Z 1412/1512 16005KT 9999 SCT030 OVC083 TX13/1412Z TN07/1504Z TEMPO 1416/1512 15015KT 4000 RA

Decode

Departure Runways

ID Width Length Bearing (true) Bearing (mag) Surface Threshold Offset Overrun Length
14 148 ft / 45 m 8,206 ft / 2,501 m 139.03° 134.87° Asphalt 300 ft / 91 m 0 ft / 0 m
32 148 ft / 45 m 8,206 ft / 2,501 m 319.04° 314.88° Asphalt 300 ft / 91 m 0 ft / 0 m

LYPG

Details ICAO LYPG (TGD)
Name Podgorica
Region Serbia and Montenegro
Timezone Europe/Podgorica (UTC+1.0)
Stats Elevation 141 ft / 43 m (AMSL)
Location 42.367947° 19.275721°
Runways 2
Magnetic Variation 4.250° E

METAR

LYPG 141700Z 14004KT 9999 FEW030 SCT040 OVC080 10/08 Q1015 NOSIG

Decode

TAF

TAF LYPG 141100Z 1412/1512 16009KT 9999 BKN030 OVC070 TX13/1412Z TN09/1505Z TEMPO 1412/1512 14015G25KT 3000 RA

Decode

Destination Runways

ID Width Length Bearing (true) Bearing (mag) Surface Threshold Offset Overrun Length
08 50 ft / 15 m 7,130 ft / 2,173 m 85.78° 81.53° Asphalt 200 ft / 61 m 0 ft / 0 m
18 148 ft / 45 m 8,214 ft / 2,504 m 184.30° 180.05° Asphalt 250 ft / 76 m 0 ft / 0 m
26 50 ft / 15 m 7,130 ft / 2,173 m 265.79° 261.54° Asphalt 200 ft / 61 m 0 ft / 0 m
36 148 ft / 45 m 8,214 ft / 2,504 m 4.30° 0.05° Asphalt 250 ft / 76 m 0 ft / 0 m

Approach Navaids

Runway Type Ident Frequency Range Bearing (true) Bearing (mag) Slope Elevation
36 Localiser YUI 109.90 MHz 25 nm / 46 km 4.32° 0.07° - 115 ft / 35 m (AMSL)
36 Glidescope YUI 109.90 MHz 25 nm / 46 km 4.32° 0.07° 3.20° 85 ft / 26 m (AMSL)

Popular Alternatives